sensor_id;sensor_type;location;lat;lon;timestamp;P1;durP1;ratioP1;P2;durP2;ratioP2
59145;SDS011;44928;53.074;6.646;2024-03-23T00:55:27;19.25;;;3.40;;
59145;SDS011;44928;53.074;6.646;2024-03-23T00:57:53;19.70;;;4.05;;
59145;SDS011;44928;53.074;6.646;2024-03-23T01:00:19;17.10;;;3.90;;
59145;SDS011;44928;53.074;6.646;2024-03-23T01:02:44;21.02;;;4.15;;
59145;SDS011;44928;53.074;6.646;2024-03-23T01:05:10;19.00;;;3.72;;
59145;SDS011;44928;53.074;6.646;2024-03-23T01:07:36;21.23;;;4.13;;
59145;SDS011;44928;53.074;6.646;2024-03-23T01:10:02;17.73;;;3.63;;
59145;SDS011;44928;53.074;6.646;2024-03-23T01:12:28;17.23;;;3.35;;
59145;SDS011;44928;53.074;6.646;2024-03-23T01:14:54;18.50;;;4.07;;
59145;SDS011;44928;53.074;6.646;2024-03-23T01:17:19;17.73;;;3.42;;
59145;SDS011;44928;53.074;6.646;2024-03-23T01:19:45;19.70;;;3.55;;
59145;SDS011;44928;53.074;6.646;2024-03-23T01:22:11;20.50;;;4.35;;
59145;SDS011;44928;53.074;6.646;2024-03-23T01:24:37;25.38;;;4.00;;
59145;SDS011;44928;53.074;6.646;2024-03-23T01:27:03;16.08;;;3.55;;
59145;SDS011;44928;53.074;6.646;2024-03-23T01:29:29;21.38;;;3.70;;
59145;SDS011;44928;53.074;6.646;2024-03-23T01:31:55;20.40;;;4.35;;
59145;SDS011;44928;53.074;6.646;2024-03-23T01:34:21;24.55;;;4.22;;
59145;SDS011;44928;53.074;6.646;2024-03-23T01:36:47;20.00;;;3.83;;
59145;SDS011;44928;53.074;6.646;2024-03-23T01:39:13;16.63;;;3.58;;
59145;SDS011;44928;53.074;6.646;2024-03-23T01:41:39;17.60;;;4.30;;
59145;SDS011;44928;53.074;6.646;2024-03-23T01:44:07;18.05;;;3.75;;
59145;SDS011;44928;53.074;6.646;2024-03-23T01:46:34;20.15;;;3.88;;
59145;SDS011;44928;53.074;6.646;2024-03-23T01:49:01;20.77;;;3.60;;
59145;SDS011;44928;53.074;6.646;2024-03-23T01:51:28;21.67;;;3.33;;
59145;SDS011;44928;53.074;6.646;2024-03-23T01:53:54;21.00;;;4.03;;
59145;SDS011;44928;53.074;6.646;2024-03-23T01:56:22;18.30;;;3.25;;
59145;SDS011;44928;53.074;6.646;2024-03-23T01:58:48;20.48;;;3.83;;
59145;SDS011;44928;53.074;6.646;2024-03-23T02:01:14;23.67;;;3.60;;
59145;SDS011;44928;53.074;6.646;2024-03-23T02:03:39;17.65;;;3.83;;
59145;SDS011;44928;53.074;6.646;2024-03-23T02:06:05;18.65;;;3.72;;
59145;SDS011;44928;53.074;6.646;2024-03-23T02:08:32;19.73;;;4.07;;
59145;SDS011;44928;53.074;6.646;2024-03-23T02:10:59;22.05;;;3.90;;
59145;SDS011;44928;53.074;6.646;2024-03-23T02:13:25;17.63;;;4.05;;
59145;SDS011;44928;53.074;6.646;2024-03-23T02:15:51;19.13;;;4.00;;
59145;SDS011;44928;53.074;6.646;2024-03-23T02:18:17;20.02;;;3.80;;
59145;SDS011;44928;53.074;6.646;2024-03-23T02:20:43;16.63;;;4.18;;
59145;SDS011;44928;53.074;6.646;2024-03-23T02:23:12;22.67;;;4.10;;
59145;SDS011;44928;53.074;6.646;2024-03-23T02:25:42;17.83;;;3.58;;
59145;SDS011;44928;53.074;6.646;2024-03-23T02:28:09;21.20;;;4.88;;
59145;SDS011;44928;53.074;6.646;2024-03-23T02:30:34;20.60;;;4.00;;
59145;SDS011;44928;53.074;6.646;2024-03-23T02:33:00;15.55;;;3.65;;
59145;SDS011;44928;53.074;6.646;2024-03-23T02:35:26;19.40;;;3.65;;
59145;SDS011;44928;53.074;6.646;2024-03-23T02:37:52;16.85;;;3.30;;
59145;SDS011;44928;53.074;6.646;2024-03-23T02:40:19;20.90;;;3.50;;
59145;SDS011;44928;53.074;6.646;2024-03-23T02:42:45;20.08;;;3.80;;
59145;SDS011;44928;53.074;6.646;2024-03-23T02:45:11;22.20;;;3.58;;
59145;SDS011;44928;53.074;6.646;2024-03-23T02:47:37;22.90;;;4.65;;
59145;SDS011;44928;53.074;6.646;2024-03-23T02:50:03;20.52;;;3.75;;
59145;SDS011;44928;53.074;6.646;2024-03-23T02:52:29;19.63;;;4.10;;
59145;SDS011;44928;53.074;6.646;2024-03-23T02:54:56;19.65;;;4.43;;
59145;SDS011;44928;53.074;6.646;2024-03-23T02:57:22;16.23;;;3.55;;
59145;SDS011;44928;53.074;6.646;2024-03-23T02:59:47;20.27;;;4.07;;
59145;SDS011;44928;53.074;6.646;2024-03-23T03:02:13;20.65;;;4.20;;
59145;SDS011;44928;53.074;6.646;2024-03-23T03:04:40;15.30;;;3.67;;
59145;SDS011;44928;53.074;6.646;2024-03-23T03:07:05;21.27;;;4.32;;
59145;SDS011;44928;53.074;6.646;2024-03-23T03:09:31;22.67;;;4.07;;
59145;SDS011;44928;53.074;6.646;2024-03-23T03:11:58;17.83;;;3.47;;
59145;SDS011;44928;53.074;6.646;2024-03-23T03:14:24;26.38;;;4.85;;
59145;SDS011;44928;53.074;6.646;2024-03-23T03:16:49;20.42;;;3.75;;
59145;SDS011;44928;53.074;6.646;2024-03-23T03:19:15;13.23;;;3.42;;
59145;SDS011;44928;53.074;6.646;2024-03-23T03:21:42;17.50;;;4.85;;
59145;SDS011;44928;53.074;6.646;2024-03-23T03:24:07;15.88;;;3.53;;
59145;SDS011;44928;53.074;6.646;2024-03-23T03:26:33;13.60;;;3.20;;
59145;SDS011;44928;53.074;6.646;2024-03-23T03:28:59;13.45;;;3.28;;
59145;SDS011;44928;53.074;6.646;2024-03-23T03:31:25;19.88;;;3.95;;
59145;SDS011;44928;53.074;6.646;2024-03-23T03:33:51;17.73;;;4.10;;
59145;SDS011;44928;53.074;6.646;2024-03-23T03:36:16;17.27;;;3.53;;
59145;SDS011;44928;53.074;6.646;2024-03-23T03:38:42;18.90;;;3.78;;
59145;SDS011;44928;53.074;6.646;2024-03-23T03:41:08;14.70;;;3.75;;
59145;SDS011;44928;53.074;6.646;2024-03-23T03:43:34;16.63;;;4.13;;
59145;SDS011;44928;53.074;6.646;2024-03-23T03:46:00;15.10;;;3.42;;
59145;SDS011;44928;53.074;6.646;2024-03-23T03:48:26;20.38;;;4.28;;
59145;SDS011;44928;53.074;6.646;2024-03-23T03:50:53;18.48;;;3.50;;
59145;SDS011;44928;53.074;6.646;2024-03-23T03:53:19;13.05;;;3.03;;
59145;SDS011;44928;53.074;6.646;2024-03-23T03:55:45;20.65;;;3.70;;
59145;SDS011;44928;53.074;6.646;2024-03-23T03:58:11;17.30;;;4.60;;
59145;SDS011;44928;53.074;6.646;2024-03-23T04:00:36;18.88;;;3.90;;
59145;SDS011;44928;53.074;6.646;2024-03-23T04:03:02;14.82;;;2.90;;
59145;SDS011;44928;53.074;6.646;2024-03-23T04:05:28;16.13;;;3.88;;
59145;SDS011;44928;53.074;6.646;2024-03-23T04:07:54;17.13;;;3.80;;
59145;SDS011;44928;53.074;6.646;2024-03-23T04:10:20;15.40;;;3.83;;
59145;SDS011;44928;53.074;6.646;2024-03-23T04:12:46;17.42;;;3.20;;
59145;SDS011;44928;53.074;6.646;2024-03-23T04:15:13;15.82;;;3.97;;
59145;SDS011;44928;53.074;6.646;2024-03-23T04:17:39;17.40;;;3.63;;
59145;SDS011;44928;53.074;6.646;2024-03-23T04:20:05;15.38;;;3.15;;
59145;SDS011;44928;53.074;6.646;2024-03-23T04:22:34;18.80;;;3.53;;
59145;SDS011;44928;53.074;6.646;2024-03-23T04:25:00;13.25;;;3.20;;
59145;SDS011;44928;53.074;6.646;2024-03-23T04:27:34;19.27;;;3.22;;
59145;SDS011;44928;53.074;6.646;2024-03-23T04:30:00;20.70;;;4.05;;
59145;SDS011;44928;53.074;6.646;2024-03-23T04:32:27;18.67;;;3.72;;
59145;SDS011;44928;53.074;6.646;2024-03-23T04:34:53;19.23;;;4.10;;
59145;SDS011;44928;53.074;6.646;2024-03-23T04:37:20;17.67;;;2.97;;
59145;SDS011;44928;53.074;6.646;2024-03-23T04:39:46;13.65;;;3.22;;
59145;SDS011;44928;53.074;6.646;2024-03-23T04:42:14;12.68;;;3.38;;
59145;SDS011;44928;53.074;6.646;2024-03-23T04:44:40;21.35;;;3.80;;
59145;SDS011;44928;53.074;6.646;2024-03-23T04:47:06;17.48;;;3.45;;
59145;SDS011;44928;53.074;6.646;2024-03-23T04:49:32;13.50;;;3.53;;
59145;SDS011;44928;53.074;6.646;2024-03-23T04:51:57;13.85;;;3.50;;
59145;SDS011;44928;53.074;6.646;2024-03-23T04:54:23;16.27;;;3.22;;
59145;SDS011;44928;53.074;6.646;2024-03-23T04:56:49;13.20;;;3.65;;
59145;SDS011;44928;53.074;6.646;2024-03-23T04:59:15;16.80;;;2.95;;
59145;SDS011;44928;53.074;6.646;2024-03-23T05:01:41;17.45;;;3.33;;
59145;SDS011;44928;53.074;6.646;2024-03-23T05:04:08;15.95;;;3.35;;
59145;SDS011;44928;53.074;6.646;2024-03-23T05:06:35;19.25;;;4.20;;
59145;SDS011;44928;53.074;6.646;2024-03-23T05:09:00;14.88;;;2.85;;
59145;SDS011;44928;53.074;6.646;2024-03-23T05:11:36;14.98;;;3.17;;
59145;SDS011;44928;53.074;6.646;2024-03-23T05:14:03;17.90;;;2.97;;
59145;SDS011;44928;53.074;6.646;2024-03-23T05:16:29;14.43;;;3.25;;
59145;SDS011;44928;53.074;6.646;2024-03-23T05:18:55;15.45;;;3.28;;
59145;SDS011;44928;53.074;6.646;2024-03-23T05:21:21;17.20;;;3.50;;
59145;SDS011;44928;53.074;6.646;2024-03-23T05:23:46;13.88;;;3.47;;
59145;SDS011;44928;53.074;6.646;2024-03-23T05:26:14;14.13;;;3.00;;
59145;SDS011;44928;53.074;6.646;2024-03-23T05:28:40;13.30;;;2.65;;
59145;SDS011;44928;53.074;6.646;2024-03-23T05:31:05;11.75;;;2.60;;
59145;SDS011;44928;53.074;6.646;2024-03-23T05:33:31;15.32;;;3.00;;
59145;SDS011;44928;53.074;6.646;2024-03-23T05:35:57;15.45;;;3.53;;
59145;SDS011;44928;53.074;6.646;2024-03-23T05:38:24;15.27;;;2.78;;
59145;SDS011;44928;53.074;6.646;2024-03-23T05:40:53;14.82;;;3.05;;
59145;SDS011;44928;53.074;6.646;2024-03-23T05:43:23;13.27;;;2.88;;
59145;SDS011;44928;53.074;6.646;2024-03-23T05:45:59;19.83;;;2.72;;
59145;SDS011;44928;53.074;6.646;2024-03-23T05:48:26;23.27;;;3.03;;
59145;SDS011;44928;53.074;6.646;2024-03-23T05:50:52;13.15;;;2.75;;
59145;SDS011;44928;53.074;6.646;2024-03-23T05:53:19;15.27;;;3.03;;
59145;SDS011;44928;53.074;6.646;2024-03-23T05:55:48;11.00;;;2.45;;
59145;SDS011;44928;53.074;6.646;2024-03-23T05:58:17;18.23;;;3.22;;
59145;SDS011;44928;53.074;6.646;2024-03-23T06:00:43;12.82;;;2.50;;
59145;SDS011;44928;53.074;6.646;2024-03-23T06:03:09;11.38;;;2.20;;
59145;SDS011;44928;53.074;6.646;2024-03-23T06:05:36;19.63;;;3.55;;
59145;SDS011;44928;53.074;6.646;2024-03-23T06:08:02;11.88;;;2.60;;
59145;SDS011;44928;53.074;6.646;2024-03-23T06:10:28;11.90;;;2.50;;
59145;SDS011;44928;53.074;6.646;2024-03-23T06:12:54;11.73;;;2.17;;
59145;SDS011;44928;53.074;6.646;2024-03-23T06:15:21;16.80;;;3.92;;
59145;SDS011;44928;53.074;6.646;2024-03-23T06:17:47;13.88;;;2.40;;
59145;SDS011;44928;53.074;6.646;2024-03-23T06:20:13;14.95;;;2.70;;
59145;SDS011;44928;53.074;6.646;2024-03-23T06:22:39;14.75;;;2.70;;
59145;SDS011;44928;53.074;6.646;2024-03-23T06:25:05;16.40;;;2.28;;
59145;SDS011;44928;53.074;6.646;2024-03-23T06:27:32;11.95;;;2.35;;
59145;SDS011;44928;53.074;6.646;2024-03-23T06:29:58;11.75;;;1.88;;
59145;SDS011;44928;53.074;6.646;2024-03-23T06:32:24;13.20;;;2.47;;
59145;SDS011;44928;53.074;6.646;2024-03-23T06:34:50;6.95;;;1.60;;
59145;SDS011;44928;53.074;6.646;2024-03-23T06:37:16;11.88;;;2.10;;
59145;SDS011;44928;53.074;6.646;2024-03-23T06:39:42;7.70;;;1.70;;
59145;SDS011;44928;53.074;6.646;2024-03-23T06:42:08;9.52;;;1.90;;
59145;SDS011;44928;53.074;6.646;2024-03-23T06:44:34;6.90;;;1.70;;
59145;SDS011;44928;53.074;6.646;2024-03-23T06:47:00;10.90;;;2.30;;
59145;SDS011;44928;53.074;6.646;2024-03-23T06:49:25;13.55;;;1.90;;
59145;SDS011;44928;53.074;6.646;2024-03-23T06:51:51;11.77;;;2.55;;
59145;SDS011;44928;53.074;6.646;2024-03-23T06:54:20;12.85;;;2.50;;
59145;SDS011;44928;53.074;6.646;2024-03-23T06:56:46;12.10;;;2.40;;
59145;SDS011;44928;53.074;6.646;2024-03-23T06:59:12;8.38;;;1.90;;
59145;SDS011;44928;53.074;6.646;2024-03-23T07:01:37;12.43;;;2.30;;
59145;SDS011;44928;53.074;6.646;2024-03-23T07:04:03;12.50;;;2.55;;
59145;SDS011;44928;53.074;6.646;2024-03-23T07:06:30;13.07;;;2.47;;
59145;SDS011;44928;53.074;6.646;2024-03-23T07:08:56;12.75;;;3.25;;
59145;SDS011;44928;53.074;6.646;2024-03-23T07:11:22;12.25;;;2.80;;
59145;SDS011;44928;53.074;6.646;2024-03-23T07:13:52;13.95;;;2.47;;
59145;SDS011;44928;53.074;6.646;2024-03-23T07:16:21;10.15;;;2.30;;
59145;SDS011;44928;53.074;6.646;2024-03-23T07:18:47;14.52;;;2.55;;
59145;SDS011;44928;53.074;6.646;2024-03-23T07:21:15;13.65;;;2.97;;
59145;SDS011;44928;53.074;6.646;2024-03-23T07:23:44;15.00;;;2.55;;
59145;SDS011;44928;53.074;6.646;2024-03-23T07:26:10;12.95;;;2.53;;
59145;SDS011;44928;53.074;6.646;2024-03-23T07:28:36;13.32;;;2.67;;
59145;SDS011;44928;53.074;6.646;2024-03-23T07:31:09;11.25;;;2.97;;
59145;SDS011;44928;53.074;6.646;2024-03-23T07:33:37;10.23;;;2.80;;
59145;SDS011;44928;53.074;6.646;2024-03-23T07:36:06;12.13;;;2.33;;
59145;SDS011;44928;53.074;6.646;2024-03-23T07:38:32;11.52;;;2.00;;
59145;SDS011;44928;53.074;6.646;2024-03-23T07:41:08;10.15;;;1.77;;
59145;SDS011;44928;53.074;6.646;2024-03-23T07:43:35;12.00;;;2.65;;
59145;SDS011;44928;53.074;6.646;2024-03-23T07:46:04;10.15;;;1.98;;
59145;SDS011;44928;53.074;6.646;2024-03-23T07:48:30;10.38;;;2.10;;
59145;SDS011;44928;53.074;6.646;2024-03-23T07:51:00;9.38;;;2.08;;
59145;SDS011;44928;53.074;6.646;2024-03-23T07:53:31;10.10;;;2.00;;
59145;SDS011;44928;53.074;6.646;2024-03-23T07:56:01;7.40;;;1.30;;
59145;SDS011;44928;53.074;6.646;2024-03-23T07:58:28;11.27;;;1.67;;
59145;SDS011;44928;53.074;6.646;2024-03-23T08:00:54;8.00;;;1.60;;
59145;SDS011;44928;53.074;6.646;2024-03-23T08:03:21;4.93;;;1.13;;
59145;SDS011;44928;53.074;6.646;2024-03-23T08:05:47;7.65;;;1.30;;
59145;SDS011;44928;53.074;6.646;2024-03-23T08:08:13;4.90;;;1.27;;
59145;SDS011;44928;53.074;6.646;2024-03-23T08:10:49;9.18;;;1.52;;
59145;SDS011;44928;53.074;6.646;2024-03-23T08:13:16;4.95;;;1.25;;
59145;SDS011;44928;53.074;6.646;2024-03-23T08:15:41;8.95;;;1.90;;
59145;SDS011;44928;53.074;6.646;2024-03-23T08:18:07;6.65;;;1.10;;
59145;SDS011;44928;53.074;6.646;2024-03-23T08:20:33;5.45;;;1.10;;
59145;SDS011;44928;53.074;6.646;2024-03-23T08:22:59;6.85;;;1.25;;
59145;SDS011;44928;53.074;6.646;2024-03-23T08:25:25;7.82;;;2.03;;
59145;SDS011;44928;53.074;6.646;2024-03-23T08:27:51;7.72;;;1.73;;
59145;SDS011;44928;53.074;6.646;2024-03-23T08:30:17;7.35;;;1.35;;
59145;SDS011;44928;53.074;6.646;2024-03-23T08:32:43;7.45;;;1.63;;
59145;SDS011;44928;53.074;6.646;2024-03-23T08:35:09;8.15;;;1.52;;
59145;SDS011;44928;53.074;6.646;2024-03-23T08:37:35;7.25;;;1.20;;
59145;SDS011;44928;53.074;6.646;2024-03-23T08:40:01;7.88;;;1.50;;
59145;SDS011;44928;53.074;6.646;2024-03-23T08:42:27;5.75;;;1.23;;
59145;SDS011;44928;53.074;6.646;2024-03-23T08:44:52;6.45;;;1.40;;
59145;SDS011;44928;53.074;6.646;2024-03-23T08:47:18;6.65;;;1.20;;
59145;SDS011;44928;53.074;6.646;2024-03-23T08:49:44;7.03;;;1.52;;
59145;SDS011;44928;53.074;6.646;2024-03-23T08:52:10;10.82;;;2.00;;
59145;SDS011;44928;53.074;6.646;2024-03-23T08:54:36;7.93;;;2.00;;
59145;SDS011;44928;53.074;6.646;2024-03-23T08:57:01;7.28;;;1.38;;
59145;SDS011;44928;53.074;6.646;2024-03-23T08:59:27;9.77;;;1.40;;
59145;SDS011;44928;53.074;6.646;2024-03-23T09:01:53;9.48;;;1.75;;
59145;SDS011;44928;53.074;6.646;2024-03-23T09:04:19;8.32;;;1.70;;
59145;SDS011;44928;53.074;6.646;2024-03-23T09:06:45;12.00;;;2.20;;
59145;SDS011;44928;53.074;6.646;2024-03-23T09:09:10;15.18;;;2.25;;
59145;SDS011;44928;53.074;6.646;2024-03-23T09:11:36;8.82;;;1.70;;
59145;SDS011;44928;53.074;6.646;2024-03-23T09:14:02;11.88;;;2.15;;
59145;SDS011;44928;53.074;6.646;2024-03-23T09:16:29;9.23;;;2.22;;
59145;SDS011;44928;53.074;6.646;2024-03-23T09:18:54;12.48;;;2.65;;
59145;SDS011;44928;53.074;6.646;2024-03-23T09:21:20;13.18;;;3.13;;
59145;SDS011;44928;53.074;6.646;2024-03-23T09:23:46;11.45;;;2.05;;
59145;SDS011;44928;53.074;6.646;2024-03-23T09:26:12;8.52;;;2.10;;
59145;SDS011;44928;53.074;6.646;2024-03-23T09:28:38;13.10;;;2.28;;
59145;SDS011;44928;53.074;6.646;2024-03-23T09:31:07;10.90;;;2.03;;
59145;SDS011;44928;53.074;6.646;2024-03-23T09:33:35;9.98;;;1.88;;
59145;SDS011;44928;53.074;6.646;2024-03-23T09:36:04;14.38;;;3.00;;
59145;SDS011;44928;53.074;6.646;2024-03-23T09:38:31;12.25;;;2.00;;
59145;SDS011;44928;53.074;6.646;2024-03-23T09:40:57;10.23;;;1.85;;
59145;SDS011;44928;53.074;6.646;2024-03-23T09:43:23;8.55;;;1.92;;
59145;SDS011;44928;53.074;6.646;2024-03-23T09:45:49;6.95;;;1.20;;
59145;SDS011;44928;53.074;6.646;2024-03-23T09:48:15;10.48;;;1.38;;
59145;SDS011;44928;53.074;6.646;2024-03-23T09:50:42;7.10;;;1.38;;
59145;SDS011;44928;53.074;6.646;2024-03-23T09:53:09;11.73;;;1.90;;
59145;SDS011;44928;53.074;6.646;2024-03-23T09:55:39;7.97;;;1.40;;
59145;SDS011;44928;53.074;6.646;2024-03-23T09:58:08;8.15;;;1.20;;
59145;SDS011;44928;53.074;6.646;2024-03-23T10:00:37;8.50;;;1.50;;
59145;SDS011;44928;53.074;6.646;2024-03-23T10:03:03;10.13;;;1.67;;
59145;SDS011;44928;53.074;6.646;2024-03-23T10:05:31;6.57;;;1.50;;
59145;SDS011;44928;53.074;6.646;2024-03-23T10:10:39;8.73;;;1.45;;
59145;SDS011;44928;53.074;6.646;2024-03-23T10:13:05;11.13;;;1.73;;
59145;SDS011;44928;53.074;6.646;2024-03-23T10:15:33;7.53;;;1.63;;
59145;SDS011;44928;53.074;6.646;2024-03-23T10:20:51;6.07;;;1.40;;
59145;SDS011;44928;53.074;6.646;2024-03-23T10:23:31;12.60;;;1.92;;
59145;SDS011;44928;53.074;6.646;2024-03-23T10:28:50;13.38;;;2.15;;
59145;SDS011;44928;53.074;6.646;2024-03-23T10:31:23;13.63;;;1.80;;
59145;SDS011;44928;53.074;6.646;2024-03-23T10:33:49;13.18;;;2.20;;
59145;SDS011;44928;53.074;6.646;2024-03-23T10:36:15;13.30;;;1.90;;
59145;SDS011;44928;53.074;6.646;2024-03-23T10:38:42;8.00;;;1.83;;
59145;SDS011;44928;53.074;6.646;2024-03-23T10:41:09;29.17;;;3.38;;
59145;SDS011;44928;53.074;6.646;2024-03-23T10:43:36;8.45;;;1.50;;
59145;SDS011;44928;53.074;6.646;2024-03-23T10:46:03;6.80;;;1.40;;
59145;SDS011;44928;53.074;6.646;2024-03-23T10:48:29;5.30;;;1.10;;
59145;SDS011;44928;53.074;6.646;2024-03-23T10:50:56;8.93;;;1.27;;
59145;SDS011;44928;53.074;6.646;2024-03-23T10:53:25;7.63;;;1.58;;
59145;SDS011;44928;53.074;6.646;2024-03-23T10:55:52;8.30;;;1.50;;
59145;SDS011;44928;53.074;6.646;2024-03-23T10:58:21;9.55;;;1.17;;
59145;SDS011;44928;53.074;6.646;2024-03-23T11:01:03;11.65;;;1.77;;
59145;SDS011;44928;53.074;6.646;2024-03-23T11:03:38;5.15;;;0.98;;
59145;SDS011;44928;53.074;6.646;2024-03-23T11:06:05;3.55;;;0.88;;
59145;SDS011;44928;53.074;6.646;2024-03-23T11:08:36;5.63;;;1.05;;
59145;SDS011;44928;53.074;6.646;2024-03-23T11:13:53;4.63;;;1.00;;
59145;SDS011;44928;53.074;6.646;2024-03-23T11:16:23;5.70;;;1.30;;
59145;SDS011;44928;53.074;6.646;2024-03-23T11:22:03;7.13;;;1.10;;
59145;SDS011;44928;53.074;6.646;2024-03-23T11:24:30;8.30;;;1.05;;
59145;SDS011;44928;53.074;6.646;2024-03-23T11:26:56;6.28;;;1.15;;
59145;SDS011;44928;53.074;6.646;2024-03-23T11:29:27;6.88;;;1.20;;
59145;SDS011;44928;53.074;6.646;2024-03-23T11:31:54;8.95;;;1.50;;
59145;SDS011;44928;53.074;6.646;2024-03-23T11:34:20;6.95;;;1.27;;
59145;SDS011;44928;53.074;6.646;2024-03-23T11:36:47;5.40;;;1.08;;
59145;SDS011;44928;53.074;6.646;2024-03-23T11:39:19;6.32;;;1.63;;
59145;SDS011;44928;53.074;6.646;2024-03-23T11:41:52;9.73;;;1.38;;
59145;SDS011;44928;53.074;6.646;2024-03-23T11:44:19;8.90;;;1.30;;
59145;SDS011;44928;53.074;6.646;2024-03-23T11:46:50;4.03;;;0.98;;
59145;SDS011;44928;53.074;6.646;2024-03-23T11:49:27;6.78;;;1.02;;
59145;SDS011;44928;53.074;6.646;2024-03-23T11:51:55;4.05;;;1.00;;
59145;SDS011;44928;53.074;6.646;2024-03-23T11:54:22;5.40;;;1.17;;
59145;SDS011;44928;53.074;6.646;2024-03-23T11:56:59;8.50;;;1.50;;
59145;SDS011;44928;53.074;6.646;2024-03-23T11:59:36;9.95;;;1.52;;
59145;SDS011;44928;53.074;6.646;2024-03-23T12:02:09;6.60;;;1.60;;
59145;SDS011;44928;53.074;6.646;2024-03-23T12:04:42;6.00;;;1.35;;
59145;SDS011;44928;53.074;6.646;2024-03-23T12:07:14;7.28;;;1.20;;
59145;SDS011;44928;53.074;6.646;2024-03-23T12:09:40;8.23;;;1.17;;
59145;SDS011;44928;53.074;6.646;2024-03-23T12:12:11;4.28;;;0.77;;
59145;SDS011;44928;53.074;6.646;2024-03-23T12:15:01;9.05;;;1.15;;
59145;SDS011;44928;53.074;6.646;2024-03-23T12:17:28;8.90;;;1.50;;
59145;SDS011;44928;53.074;6.646;2024-03-23T12:19:54;9.02;;;1.15;;
59145;SDS011;44928;53.074;6.646;2024-03-23T12:22:20;9.02;;;1.27;;
59145;SDS011;44928;53.074;6.646;2024-03-23T12:24:46;6.57;;;1.05;;
59145;SDS011;44928;53.074;6.646;2024-03-23T12:27:12;6.35;;;1.10;;
59145;SDS011;44928;53.074;6.646;2024-03-23T12:29:38;5.78;;;1.00;;
59145;SDS011;44928;53.074;6.646;2024-03-23T12:32:04;7.03;;;1.10;;
59145;SDS011;44928;53.074;6.646;2024-03-23T12:34:30;6.28;;;0.93;;
59145;SDS011;44928;53.074;6.646;2024-03-23T12:36:56;9.70;;;1.20;;
59145;SDS011;44928;53.074;6.646;2024-03-23T12:39:22;5.13;;;0.93;;
59145;SDS011;44928;53.074;6.646;2024-03-23T12:41:48;4.18;;;0.90;;
59145;SDS011;44928;53.074;6.646;2024-03-23T12:44:14;5.15;;;1.00;;
59145;SDS011;44928;53.074;6.646;2024-03-23T12:46:40;4.50;;;0.88;;
59145;SDS011;44928;53.074;6.646;2024-03-23T12:49:07;7.70;;;1.23;;
59145;SDS011;44928;53.074;6.646;2024-03-23T12:51:33;8.38;;;1.52;;
59145;SDS011;44928;53.074;6.646;2024-03-23T12:53:59;6.13;;;1.15;;
59145;SDS011;44928;53.074;6.646;2024-03-23T12:56:25;7.03;;;1.10;;
59145;SDS011;44928;53.074;6.646;2024-03-23T12:58:53;6.95;;;1.50;;
59145;SDS011;44928;53.074;6.646;2024-03-23T13:01:20;4.80;;;1.30;;
59145;SDS011;44928;53.074;6.646;2024-03-23T13:03:47;6.65;;;0.90;;
59145;SDS011;44928;53.074;6.646;2024-03-23T13:06:13;6.38;;;1.45;;
59145;SDS011;44928;53.074;6.646;2024-03-23T13:08:39;9.27;;;1.48;;
59145;SDS011;44928;53.074;6.646;2024-03-23T13:11:06;4.88;;;0.93;;
59145;SDS011;44928;53.074;6.646;2024-03-23T13:13:34;6.13;;;1.20;;
59145;SDS011;44928;53.074;6.646;2024-03-23T13:16:00;5.53;;;1.10;;
59145;SDS011;44928;53.074;6.646;2024-03-23T13:18:26;8.40;;;1.60;;
59145;SDS011;44928;53.074;6.646;2024-03-23T13:20:51;9.05;;;1.55;;
59145;SDS011;44928;53.074;6.646;2024-03-23T13:23:17;7.60;;;1.50;;
59145;SDS011;44928;53.074;6.646;2024-03-23T13:25:52;10.18;;;1.40;;
59145;SDS011;44928;53.074;6.646;2024-03-23T13:28:19;8.40;;;1.27;;
59145;SDS011;44928;53.074;6.646;2024-03-23T13:30:49;7.72;;;1.63;;
59145;SDS011;44928;53.074;6.646;2024-03-23T13:33:18;8.70;;;1.50;;
59145;SDS011;44928;53.074;6.646;2024-03-23T13:35:51;9.18;;;1.65;;
59145;SDS011;44928;53.074;6.646;2024-03-23T13:38:17;10.13;;;1.83;;
59145;SDS011;44928;53.074;6.646;2024-03-23T13:40:53;12.38;;;1.98;;
59145;SDS011;44928;53.074;6.646;2024-03-23T13:43:21;11.50;;;2.20;;
59145;SDS011;44928;53.074;6.646;2024-03-23T13:45:48;9.68;;;2.20;;
59145;SDS011;44928;53.074;6.646;2024-03-23T13:48:16;11.60;;;2.30;;
59145;SDS011;44928;53.074;6.646;2024-03-23T13:50:43;10.18;;;2.10;;
59145;SDS011;44928;53.074;6.646;2024-03-23T13:53:08;8.88;;;1.70;;
59145;SDS011;44928;53.074;6.646;2024-03-23T13:55:34;11.60;;;2.22;;
59145;SDS011;44928;53.074;6.646;2024-03-23T13:58:01;9.93;;;2.03;;
59145;SDS011;44928;53.074;6.646;2024-03-23T14:00:27;11.32;;;2.17;;
59145;SDS011;44928;53.074;6.646;2024-03-23T14:02:53;12.18;;;2.10;;
59145;SDS011;44928;53.074;6.646;2024-03-23T14:05:18;13.30;;;2.17;;
59145;SDS011;44928;53.074;6.646;2024-03-23T14:07:44;13.18;;;2.15;;
59145;SDS011;44928;53.074;6.646;2024-03-23T14:10:10;15.77;;;2.42;;
59145;SDS011;44928;53.074;6.646;2024-03-23T14:12:36;12.30;;;2.20;;
59145;SDS011;44928;53.074;6.646;2024-03-23T14:15:05;10.65;;;2.00;;
59145;SDS011;44928;53.074;6.646;2024-03-23T14:17:31;13.90;;;2.28;;
59145;SDS011;44928;53.074;6.646;2024-03-23T14:19:57;13.07;;;2.67;;
59145;SDS011;44928;53.074;6.646;2024-03-23T14:22:26;11.57;;;2.40;;
59145;SDS011;44928;53.074;6.646;2024-03-23T14:24:53;9.50;;;2.05;;
59145;SDS011;44928;53.074;6.646;2024-03-23T14:27:19;10.68;;;1.75;;
59145;SDS011;44928;53.074;6.646;2024-03-23T14:29:48;9.82;;;2.22;;
59145;SDS011;44928;53.074;6.646;2024-03-23T14:32:14;11.80;;;2.30;;
59145;SDS011;44928;53.074;6.646;2024-03-23T14:34:40;10.23;;;2.13;;
59145;SDS011;44928;53.074;6.646;2024-03-23T14:37:06;12.68;;;2.28;;
59145;SDS011;44928;53.074;6.646;2024-03-23T14:39:32;15.52;;;2.22;;
59145;SDS011;44928;53.074;6.646;2024-03-23T14:42:02;12.98;;;2.22;;
59145;SDS011;44928;53.074;6.646;2024-03-23T14:44:29;9.45;;;1.73;;
59145;SDS011;44928;53.074;6.646;2024-03-23T14:46:54;10.77;;;2.35;;
59145;SDS011;44928;53.074;6.646;2024-03-23T14:49:20;9.68;;;1.83;;
59145;SDS011;44928;53.074;6.646;2024-03-23T14:51:46;14.48;;;2.17;;
59145;SDS011;44928;53.074;6.646;2024-03-23T14:54:12;8.63;;;1.75;;
59145;SDS011;44928;53.074;6.646;2024-03-23T14:56:38;12.43;;;2.38;;
59145;SDS011;44928;53.074;6.646;2024-03-23T14:59:04;12.90;;;2.00;;
59145;SDS011;44928;53.074;6.646;2024-03-23T15:01:31;10.07;;;2.08;;
59145;SDS011;44928;53.074;6.646;2024-03-23T15:03:57;9.63;;;1.65;;
59145;SDS011;44928;53.074;6.646;2024-03-23T15:06:23;11.77;;;1.95;;
59145;SDS011;44928;53.074;6.646;2024-03-23T15:08:48;11.10;;;2.05;;
59145;SDS011;44928;53.074;6.646;2024-03-23T15:11:14;10.25;;;2.00;;
59145;SDS011;44928;53.074;6.646;2024-03-23T15:13:43;12.85;;;1.60;;
59145;SDS011;44928;53.074;6.646;2024-03-23T15:16:09;13.57;;;2.22;;
59145;SDS011;44928;53.074;6.646;2024-03-23T15:18:35;10.63;;;2.22;;
59145;SDS011;44928;53.074;6.646;2024-03-23T15:21:01;9.30;;;1.80;;
59145;SDS011;44928;53.074;6.646;2024-03-23T15:23:31;6.30;;;0.90;;
59145;SDS011;44928;53.074;6.646;2024-03-23T15:26:00;10.60;;;2.20;;
59145;SDS011;44928;53.074;6.646;2024-03-23T15:28:27;8.18;;;1.30;;
59145;SDS011;44928;53.074;6.646;2024-03-23T15:31:04;11.90;;;1.80;;
59145;SDS011;44928;53.074;6.646;2024-03-23T15:33:30;11.52;;;1.90;;
59145;SDS011;44928;53.074;6.646;2024-03-23T15:35:59;10.35;;;1.60;;
59145;SDS011;44928;53.074;6.646;2024-03-23T15:38:25;10.60;;;2.13;;
59145;SDS011;44928;53.074;6.646;2024-03-23T15:40:52;9.27;;;1.48;;
59145;SDS011;44928;53.074;6.646;2024-03-23T15:43:18;8.57;;;1.83;;
59145;SDS011;44928;53.074;6.646;2024-03-23T15:45:44;9.07;;;1.50;;